Observations at @or for Latest


KAST 240855Z AUTO 33006KT 9SM OVC031 08/07 A3051 RMK AO2 SLP330 T00780072 50007=
KBKE 240853Z AUTO 00000KT 10SM BKN013 BKN060 01/M01 A3036 RMK AO2 SLP302
 T00061006 51006=
KBNO 240853Z AUTO 27005KT 10SM FEW031 M01/M02 A3037 RMK AO2 SLP296 T10061022
 50007=
KCVO 240856Z AUTO 29003KT 10SM OVC033 04/04 A3052 RMK AO2 SLP336 T00440039
 52012=
KDLS 240853Z AUTO 26004KT 10SM BKN050 08/04 A3045 RMK AO2 SLP312 T00830039
 53012=
KEUG 240854Z 22003KT 4SM BR SCT002 OVC029 04/04 A3051 RMK AO2 VIS 2 1/2 RNW 34
 CIG 002 RNW 34 SLP333 T00440039 51008=
KEUG 240857Z 23004KT 1 3/4SM R16R/5000VP6000FT BR SCT002 OVC029 05/04 A3051 RMK
 AO2 CIG 002 RNW 34 T00500039=
KEUG 240901Z 23004KT 3/4SM R16R/3500VP6000FT BR SCT002 OVC029 05/04 A3051 RMK
 AO2 T00500039=
KHIO 240853Z AUTO 29003KT 10SM FEW018 OVC037 06/05 A3051 RMK AO2 SLP332
 T00610050 51019=
KLGD 240856Z AUTO 00000KT 7SM SCT010 BKN022 OVC035 01/01 A3039 RMK AO2
 RAE14UPB14E21 SLP419 P0000 60001 T00110006 51008 FZRANO=
KLKV 240853Z AUTO 06003KT 1/4SM FZFG OVC001 M02/M03 A3040 RMK AO2 SLP327
 T10221033 50001 FZRANO=
KLKV 240857Z AUTO 00000KT 1/2SM FZFG OVC001 M03/M03 A3040 RMK AO2 FZRANO=
KLKV 240903Z AUTO 07003KT 3/4SM BR OVC001 M03/M04 A3040 RMK AO2 FZRANO=
KLKV 240909Z AUTO 00000KT 1/2SM FZFG OVC001 M03/M04 A3040 RMK AO2 FZRANO=
KLKV 240921Z AUTO 00000KT 1/4SM FZFG OVC001 M03/M04 A3040 RMK AO2 FZRANO=
KLMT 240853Z AUTO 35003KT 10SM CLR M04/M06 A3041 RMK AO2 SLP308 I3001 T10441061
 58000 $=
KMEH 240856Z AUTO 00000KT 3SM BR OVC003 02/01 A3035 RMK AO2 SLP296 60004
 T00220011 51008=
KMEH 240903Z AUTO VRB03KT 1 3/4SM BR OVC003 02/01 A3035=
KMEH 240903Z AUTO VRB03KT 1 3/4SM BR OVC003 02/01 A3035 RMK AO2 T00220011=
KMEH 240917Z AUTO 00000KT 3SM -RA BR OVC003 02/01 A3036=
KMEH 240917Z AUTO 00000KT 3SM -RA BR OVC003 02/01 A3036 RMK AO2 RAB08 P0000
 T00220011=
KMFR 240853Z AUTO 13003KT 10SM OVC005 07/05 A3048 RMK AO2 SLP326 T00670050
 51004=
KMMV 240853Z AUTO 00000KT 10SM OVC035 04/04 A3051 RMK AO2 SLP332 T00440044
 51018=
KONO 240853Z AUTO 00000KT 9SM OVC070 01/M01 A3040 RMK AO2 SLP312 T00111011
 51009=
KONP 240855Z AUTO 00000KT 10SM OVC029 07/07 A3054 RMK AO2=
KONP 240915Z AUTO 00000KT 10SM OVC029 07/07 A3054 RMK AO2=
KOTH 240856Z AUTO 00000KT 10SM OVC020 08/07 A3051 RMK AO2 RAE18 SLP332 P0000
 60000 T00780072 51009=
KOTH 240921Z AUTO 03005KT 6SM BR SCT020 07/07 A3052 RMK AO2=
KPDT 240853Z AUTO 34003KT 10SM OVC023 06/04 A3039 RMK AO2 SLP292 T00560039
 51007=
KPDX 240853Z 00000KT 10SM -RA BKN021 OVC038 08/06 A3052 RMK AO2 RAB49 SLP334
 P0000 60000 T00830061 51013=
KRBG 240853Z AUTO 00000KT 8SM OVC009 07/07 A3049 RMK AO2 CIG 004V010 SLP326
 T00720072 51005 $=
KRDM 240856Z AUTO 00000KT 10SM CLR M02/M03 A3041 RMK AO2 SLP309 I1000 I3000
 T10171033 51012=
KREO 240852Z AUTO 14009KT 00/M02 A3035 RMK AO1 SLP284 T00001022 51007=
KSLE 240856Z AUTO 00000KT 10SM OVC036 07/05 A3051 RMK AO2 SLP331 T00670050
 51015=
KSXT 240856Z AUTO 15005KT 10SM CLR 03/03 A3042 RMK AO2 SLP311 T00330033 50002 $=
KTTD 240853Z AUTO 00000KT 10SM SCT020 OVC033 09/07 A3051 RMK AO2 SLP331
 T00890067 51016=
KTTD 240901Z AUTO 00000KT 10SM BKN020 BKN030 OVC039 08/07 A3051 RMK AO2
 T00830067=
KUAO 240853Z AUTO 00000KT 10SM OVC038 08/06 A3052 RMK AO2 SLP334 T00830061
 51014=